Time;durP1;ratioP1;P1;durP2;ratioP2;P2;SDS_P1;SDS_P2;PMS_P1;PMS_P2;Temp;Humidity;BMP_temperature;BMP_pressure;BME280_temperature;BME280_humidity;BME280_pressure;Samples;Min_cycle;Max_cycle;Signal;HPM_P1;HPM_P2
2021/01/11 00:01:41;;;;;;;4.33;3.93;;;21.60;50.40;;;;;;5092940;28;20498;-69
2021/01/11 00:04:06;;;;;;;4.47;4.07;;;21.60;50.40;;;;;;5092605;28;20404;-68
2021/01/11 00:06:39;;;;;;;5.43;4.93;;;21.50;50.40;;;;;;5092667;28;20449;-69
2021/01/11 00:09:05;;;;;;;5.00;4.50;;;21.60;51.00;;;;;;5092744;28;20672;-69
2021/01/11 00:11:32;;;;;;;4.43;4.03;;;21.60;50.40;;;;;;5092597;28;20447;-69
2021/01/11 00:13:59;;;;;;;4.40;4.00;;;21.60;50.40;;;;;;5092521;28;20404;-68
2021/01/11 00:16:25;;;;;;;5.30;4.50;;;21.60;50.40;;;;;;5092848;28;20439;-69
2021/01/11 00:18:51;;;;;;;4.87;4.37;;;21.50;50.30;;;;;;5092508;28;20470;-69
2021/01/11 00:21:16;;;;;;;5.37;4.87;;;21.50;50.40;;;;;;5092494;28;20419;-69
2021/01/11 00:23:43;;;;;;;5.43;4.90;;;21.50;50.30;;;;;;5092796;28;20180;-69
2021/01/11 00:26:10;;;;;;;4.90;4.40;;;21.50;50.30;;;;;;5092626;28;20205;-68
2021/01/11 00:28:38;;;;;;;4.67;4.27;;;21.50;50.30;;;;;;5093399;28;20427;-69
2021/01/11 00:31:03;;;;;;;6.97;4.27;;;21.50;50.30;;;;;;5096167;28;20490;-69
2021/01/11 00:33:29;;;;;;;4.70;4.30;;;21.50;50.30;;;;;;5096260;28;20449;-69
2021/01/11 00:35:54;;;;;;;5.40;4.80;;;21.50;50.40;;;;;;5095989;28;20604;-68
2021/01/11 00:38:20;;;;;;;6.40;4.80;;;21.50;51.00;;;;;;5095805;28;20193;-69
2021/01/11 00:40:46;;;;;;;5.00;4.20;;;21.50;50.40;;;;;;5095917;28;20166;-68
2021/01/11 00:43:11;;;;;;;5.40;4.90;;;21.50;50.40;;;;;;5095856;28;20545;-68
2021/01/11 00:45:37;;;;;;;5.27;4.77;;;21.50;50.20;;;;;;5095960;28;20232;-68
2021/01/11 00:48:03;;;;;;;4.83;4.43;;;21.50;50.30;;;;;;5096242;28;20189;-68
2021/01/11 00:50:28;;;;;;;5.20;4.47;;;21.50;50.70;;;;;;5095633;28;20174;-68
2021/01/11 00:52:54;;;;;;;4.57;4.17;;;21.50;50.10;;;;;;5095648;28;20166;-68
2021/01/11 00:55:19;;;;;;;5.00;4.50;;;21.50;50.10;;;;;;5095546;28;20166;-69
2021/01/11 00:57:45;;;;;;;5.17;4.40;;;21.50;50.10;;;;;;5095473;28;20556;-68
2021/01/11 01:00:12;;;;;;;5.07;4.60;;;21.50;50.10;;;;;;5095493;28;20644;-68
2021/01/11 01:02:38;;;;;;;4.80;4.03;;;21.50;50.10;;;;;;5095276;28;20174;-68
2021/01/11 01:05:10;;;;;;;5.07;4.57;;;21.50;50.10;;;;;;5095264;28;20474;-68
2021/01/11 01:07:38;;;;;;;4.87;4.37;;;21.50;50.10;;;;;;5095306;28;20934;-68
2021/01/11 01:10:04;;;;;;;4.90;4.50;;;21.50;50.20;;;;;;5095545;28;20403;-68
2021/01/11 01:12:31;;;;;;;5.03;4.43;;;21.50;50.10;;;;;;5093981;28;20441;-68
2021/01/11 01:14:56;;;;;;;4.90;4.50;;;21.50;50.10;;;;;;5095238;28;20971;-68
2021/01/11 01:17:22;;;;;;;4.67;4.17;;;21.50;50.10;;;;;;5093819;28;20432;-68
2021/01/11 01:19:48;;;;;;;5.67;5.07;;;21.50;50.10;;;;;;5095382;28;20231;-68
2021/01/11 01:22:13;;;;;;;5.50;5.00;;;21.40;50.00;;;;;;5095105;28;20542;-68
2021/01/11 01:24:39;;;;;;;4.93;4.40;;;21.50;50.10;;;;;;5095036;28;20212;-68
2021/01/11 01:27:04;;;;;;;5.50;4.77;;;21.40;50.00;;;;;;5094878;28;20643;-69
2021/01/11 01:29:30;;;;;;;5.37;4.87;;;21.50;50.00;;;;;;5094981;28;20166;-68
2021/01/11 01:31:56;;;;;;;6.13;5.10;;;21.40;50.00;;;;;;5094908;28;20663;-68
2021/01/11 01:34:21;;;;;;;5.30;4.80;;;21.40;50.00;;;;;;5095126;28;20219;-68
2021/01/11 01:36:47;;;;;;;5.60;4.63;;;21.40;50.10;;;;;;5094615;28;20653;-68
2021/01/11 01:39:12;;;;;;;5.43;4.93;;;21.40;50.00;;;;;;5093479;28;20197;-68
2021/01/11 01:41:38;;;;;;;5.67;5.17;;;21.40;50.00;;;;;;5094976;28;20217;-68
2021/01/11 01:44:04;;;;;;;7.10;5.30;;;21.40;50.00;;;;;;5094570;28;20173;-68
2021/01/11 01:46:31;;;;;;;5.77;4.97;;;21.40;50.00;;;;;;5093275;28;20178;-68
2021/01/11 01:49:00;;;;;;;5.67;5.10;;;21.40;49.90;;;;;;5094569;28;20264;-68
2021/01/11 01:51:26;;;;;;;5.93;5.33;;;21.40;49.90;;;;;;5094771;28;20457;-68
2021/01/11 01:53:53;;;;;;;5.83;5.33;;;21.40;49.90;;;;;;5094696;28;20494;-68
2021/01/11 01:56:20;;;;;;;6.03;5.43;;;21.40;49.80;;;;;;5094382;28;20422;-68
2021/01/11 01:58:47;;;;;;;5.40;4.90;;;21.40;49.80;;;;;;5094588;28;20514;-68
2021/01/11 02:01:13;;;;;;;6.13;5.63;;;21.40;49.80;;;;;;5094591;28;20484;-68
2021/01/11 02:03:39;;;;;;;6.20;5.60;;;21.40;49.90;;;;;;5094568;28;20404;-68
2021/01/11 02:06:05;;;;;;;5.83;5.07;;;21.40;49.90;;;;;;5094205;28;20546;-68
2021/01/11 02:08:36;;;;;;;5.67;5.13;;;21.40;49.90;;;;;;5094173;28;20182;-68
2021/01/11 02:11:13;;;;;;;5.80;5.13;;;21.40;49.90;;;;;;5094452;28;20403;-68
2021/01/11 02:14:16;;;;;;;5.50;5.00;;;21.40;49.80;;;;;;5094198;28;20399;-68
2021/01/11 02:16:48;;;;;;;6.47;5.80;;;21.40;49.70;;;;;;5094032;28;20456;-68
2021/01/11 02:19:17;;;;;;;6.97;6.27;;;21.40;49.70;;;;;;5094271;28;20952;-68
2021/01/11 02:22:18;;;;;;;6.90;6.20;;;21.40;49.80;;;;;;5093911;28;20400;-67
2021/01/11 02:24:55;;;;;;;5.50;5.00;;;21.40;49.70;;;;;;5090612;28;21036;-68
2021/01/11 02:27:35;;;;;;;6.20;5.60;;;21.30;49.60;;;;;;5094094;28;20854;-68
2021/01/11 02:30:34;;;;;;;6.23;5.70;;;21.40;49.80;;;;;;5093831;28;20391;-68
2021/01/11 02:33:14;;;;;;;5.70;5.10;;;21.40;49.70;;;;;;5094079;28;20483;-68
2021/01/11 02:35:51;;;;;;;8.10;6.50;;;21.30;49.80;;;;;;5094054;28;20424;-68
2021/01/11 02:38:24;;;;;;;6.73;6.07;;;21.30;49.80;;;;;;5093661;28;20419;-68
2021/01/11 02:40:50;;;;;;;6.53;5.83;;;21.30;49.70;;;;;;5093928;28;20497;-68
2021/01/11 02:43:16;;;;;;;6.63;5.47;;;21.30;49.70;;;;;;5093830;28;20857;-68
2021/01/11 02:45:41;;;;;;;6.50;5.90;;;21.30;49.70;;;;;;5093766;28;20497;-68
2021/01/11 02:48:17;;;;;;;5.93;5.13;;;21.30;49.60;;;;;;5093444;28;20423;-68
2021/01/11 02:51:08;;;;;;;6.30;5.70;;;21.30;49.60;;;;;;5093015;28;20157;-68
2021/01/11 02:53:53;;;;;;;5.87;5.37;;;21.30;49.60;;;;;;5093372;28;20404;-68
2021/01/11 02:56:40;;;;;;;6.33;5.73;;;21.30;49.60;;;;;;5093355;28;20449;-67
2021/01/11 02:59:29;;;;;;;7.67;5.70;;;21.30;49.60;;;;;;5093310;28;20530;-68
2021/01/11 03:02:02;;;;;;;5.80;5.07;;;21.30;49.60;;;;;;5093296;28;20399;-68
2021/01/11 03:04:30;;;;;;;5.80;5.20;;;21.30;49.70;;;;;;5093553;28;20953;-68
2021/01/11 03:07:00;;;;;;;5.67;5.17;;;21.30;49.80;;;;;;5093148;28;20494;-67
2021/01/11 03:09:27;;;;;;;6.10;5.50;;;21.30;49.70;;;;;;5091961;28;20438;-68
2021/01/11 03:11:53;;;;;;;5.57;5.07;;;21.30;49.80;;;;;;5093153;28;20456;-68
2021/01/11 03:14:19;;;;;;;5.10;4.60;;;21.30;49.80;;;;;;5093203;28;20407;-68
2021/01/11 03:16:44;;;;;;;6.57;5.97;;;21.30;49.70;;;;;;5093946;28;20415;-68
2021/01/11 03:19:10;;;;;;;7.57;6.87;;;21.30;49.70;;;;;;5093130;28;20563;-68
2021/01/11 03:21:36;;;;;;;8.13;6.50;;;21.30;49.70;;;;;;5091838;28;20174;-68
2021/01/11 03:24:03;;;;;;;6.43;5.47;;;21.20;49.60;;;;;;5093265;28;20710;-68
2021/01/11 03:26:29;;;;;;;6.57;5.97;;;21.30;49.70;;;;;;5093049;28;20434;-68
2021/01/11 03:28:55;;;;;;;6.00;5.37;;;21.30;49.70;;;;;;5092955;28;20419;-68
2021/01/11 03:31:21;;;;;;;6.33;5.73;;;21.30;49.70;;;;;;5092902;28;20235;-68
2021/01/11 03:33:48;;;;;;;5.87;5.27;;;21.20;49.70;;;;;;5093016;28;20158;-68
2021/01/11 03:36:14;;;;;;;5.97;5.37;;;21.20;49.70;;;;;;5093275;28;20412;-68
2021/01/11 03:38:40;;;;;;;6.00;5.40;;;21.20;49.70;;;;;;5093091;28;20484;-68
2021/01/11 03:41:09;;;;;;;6.13;5.53;;;21.30;49.80;;;;;;5093188;28;20411;-68
2021/01/11 03:43:37;;;;;;;5.10;4.60;;;21.30;49.80;;;;;;5092898;28;20457;-68
2021/01/11 03:46:04;;;;;;;5.93;5.33;;;21.30;49.80;;;;;;5093080;28;20451;-68
2021/01/11 03:48:29;;;;;;;7.17;6.00;;;21.30;49.70;;;;;;5092803;28;20427;-68
2021/01/11 03:50:55;;;;;;;6.33;5.43;;;21.30;49.70;;;;;;5092800;28;20400;-68
2021/01/11 03:53:21;;;;;;;6.30;5.67;;;21.30;49.70;;;;;;5092813;28;20537;-68
2021/01/11 03:55:46;;;;;;;6.10;5.13;;;21.30;49.70;;;;;;5092798;28;20181;-68
2021/01/11 03:58:12;;;;;;;4.93;4.53;;;21.30;49.60;;;;;;5092977;28;20193;-68
2021/01/11 04:00:37;;;;;;;6.60;5.70;;;21.20;49.50;;;;;;5093105;28;20166;-68
2021/01/11 04:03:03;;;;;;;6.47;5.80;;;21.30;49.70;;;;;;5094591;28;20173;-67
2021/01/11 04:05:29;;;;;;;6.30;5.70;;;21.30;49.70;;;;;;5096559;28;20193;-68
2021/01/11 04:07:55;;;;;;;6.50;5.90;;;21.20;49.60;;;;;;5096745;28;20430;-68
2021/01/11 04:10:21;;;;;;;6.37;5.13;;;21.20;49.60;;;;;;5096484;28;20636;-68
2021/01/11 04:12:46;;;;;;;6.00;5.40;;;21.30;49.70;;;;;;5096717;28;20223;-69
2021/01/11 04:15:13;;;;;;;6.53;5.90;;;21.20;49.60;;;;;;5096912;28;20632;-68
2021/01/11 04:17:38;;;;;;;7.87;6.23;;;21.30;49.70;;;;;;5096368;28;20199;-68
2021/01/11 04:20:06;;;;;;;6.03;5.40;;;21.30;49.60;;;;;;5096834;28;20400;-68
2021/01/11 04:22:31;;;;;;;6.77;5.20;;;21.30;49.60;;;;;;5095014;28;20201;-68
2021/01/11 04:24:57;;;;;;;6.27;5.67;;;21.20;49.60;;;;;;5096144;28;20447;-68
2021/01/11 04:27:23;;;;;;;6.07;5.40;;;21.20;49.50;;;;;;5096094;28;20703;-68
2021/01/11 04:29:48;;;;;;;6.47;5.87;;;21.30;49.60;;;;;;5096370;28;20165;-68
2021/01/11 04:32:14;;;;;;;7.03;6.33;;;21.20;49.60;;;;;;5094452;28;20205;-68
2021/01/11 04:34:40;;;;;;;6.13;5.40;;;21.20;49.60;;;;;;5095979;28;20200;-68
2021/01/11 04:37:09;;;;;;;6.70;6.00;;;21.20;49.60;;;;;;5095923;28;20670;-67
2021/01/11 04:39:36;;;;;;;6.80;4.80;;;21.20;49.60;;;;;;5096235;28;20389;-68
2021/01/11 04:42:04;;;;;;;6.90;5.50;;;21.20;49.60;;;;;;5095911;28;20445;-67
2021/01/11 04:44:32;;;;;;;6.73;6.00;;;21.20;49.60;;;;;;5094459;28;20625;-67
2021/01/11 04:46:59;;;;;;;7.77;5.63;;;21.20;49.60;;;;;;5095662;28;20407;-67
2021/01/11 04:49:25;;;;;;;7.10;5.73;;;21.20;49.60;;;;;;5096059;28;20426;-68
2021/01/11 04:51:51;;;;;;;5.10;4.60;;;21.20;49.60;;;;;;5095661;28;20812;-67
2021/01/11 04:54:20;;;;;;;6.13;5.53;;;21.20;49.50;;;;;;5095631;28;20412;-67
2021/01/11 04:56:48;;;;;;;6.67;5.53;;;21.20;49.60;;;;;;5095774;28;20292;-67
2021/01/11 04:59:19;;;;;;;5.80;5.20;;;21.20;49.60;;;;;;5094158;28;20652;-68
2021/01/11 05:01:51;;;;;;;6.80;6.10;;;21.20;49.60;;;;;;5095773;28;20397;-67
2021/01/11 05:04:16;;;;;;;5.60;5.00;;;21.10;49.60;;;;;;5095397;28;20387;-67
2021/01/11 05:06:47;;;;;;;7.07;6.00;;;21.10;49.70;;;;;;5095373;28;20785;-68
2021/01/11 05:09:14;;;;;;;7.60;5.30;;;21.10;49.60;;;;;;5095564;28;20197;-67
2021/01/11 05:11:40;;;;;;;6.50;5.80;;;21.10;49.60;;;;;;5095580;28;20777;-68
2021/01/11 05:14:06;;;;;;;6.60;5.90;;;21.10;49.60;;;;;;5094979;28;20961;-68
2021/01/11 05:16:32;;;;;;;7.33;6.10;;;21.10;49.60;;;;;;5095240;28;20435;-68
2021/01/11 05:19:23;;;;;;;7.30;5.83;;;21.10;49.60;;;;;;5095400;28;20488;-68
2021/01/11 05:21:49;;;;;;;6.43;5.53;;;21.10;49.60;;;;;;5095382;28;20201;-68
2021/01/11 05:24:37;;;;;;;6.33;5.60;;;21.10;49.60;;;;;;5094989;28;20893;-67
2021/01/11 05:27:07;;;;;;;5.93;5.33;;;21.10;49.60;;;;;;5094931;28;20267;-68
2021/01/11 05:29:34;;;;;;;6.20;5.60;;;21.10;49.60;;;;;;5095197;28;20415;-66
2021/01/11 05:32:04;;;;;;;7.50;5.23;;;21.00;49.60;;;;;;5094797;28;20810;-68
2021/01/11 05:34:51;;;;;;;6.43;5.73;;;21.00;49.70;;;;;;5094894;28;20416;-68
2021/01/11 05:37:38;;;;;;;6.00;5.40;;;21.10;49.70;;;;;;5095015;28;20428;-68
2021/01/11 05:40:05;;;;;;;6.07;5.33;;;21.10;49.60;;;;;;5094785;28;20406;-67
2021/01/11 05:42:31;;;;;;;5.97;5.27;;;21.00;49.60;;;;;;5094731;28;20411;-68
2021/01/11 05:45:13;;;;;;;6.00;5.40;;;21.10;49.60;;;;;;5094696;28;20455;-68
2021/01/11 05:48:08;;;;;;;6.17;5.00;;;21.10;49.50;;;;;;5094600;28;20660;-68
2021/01/11 05:50:50;;;;;;;6.10;5.33;;;21.10;49.50;;;;;;5093328;28;20418;-68
2021/01/11 05:53:24;;;;;;;6.17;5.57;;;21.10;49.40;;;;;;5094670;28;20455;-68
2021/01/11 05:55:51;;;;;;;6.10;5.50;;;21.10;49.40;;;;;;5094639;28;20887;-68
2021/01/11 05:58:21;;;;;;;5.37;4.87;;;21.10;49.40;;;;;;5094474;28;20428;-68
2021/01/11 06:00:47;;;;;;;6.43;5.73;;;21.10;49.30;;;;;;5094629;28;20416;-68
2021/01/11 06:03:13;;;;;;;6.90;5.90;;;21.10;49.40;;;;;;5094258;28;20781;-68
2021/01/11 06:05:41;;;;;;;6.57;5.60;;;21.10;49.30;;;;;;5094485;28;20545;-68
2021/01/11 06:08:09;;;;;;;6.97;5.53;;;21.10;49.20;;;;;;5094126;28;20426;-68
2021/01/11 06:10:36;;;;;;;5.77;5.17;;;21.10;49.10;;;;;;5094143;28;20542;-68
2021/01/11 06:13:06;;;;;;;6.03;5.53;;;21.10;48.90;;;;;;5094393;28;20432;-68
2021/01/11 06:15:33;;;;;;;7.03;5.50;;;21.20;48.90;;;;;;5093849;28;20820;-68
2021/01/11 06:17:59;;;;;;;6.27;5.50;;;21.20;48.90;;;;;;5093955;28;20481;-68
2021/01/11 06:20:26;;;;;;;5.40;4.63;;;21.20;48.90;;;;;;5094272;28;20481;-67
2021/01/11 06:22:52;;;;;;;8.13;6.20;;;21.20;48.80;;;;;;5093927;28;20403;-67
2021/01/11 06:25:17;;;;;;;7.03;6.07;;;21.20;48.70;;;;;;5093191;28;20521;-68
2021/01/11 06:28:07;;;;;;;6.30;5.70;;;21.20;48.80;;;;;;5093821;28;20276;-67
2021/01/11 06:30:41;;;;;;;5.90;4.70;;;21.30;48.80;;;;;;5093700;28;20154;-67
2021/01/11 06:33:06;;;;;;;6.30;5.47;;;21.20;48.80;;;;;;5093720;28;20421;-68
2021/01/11 06:35:53;;;;;;;5.97;5.37;;;21.30;48.70;;;;;;5093754;28;20403;-68
2021/01/11 06:38:40;;;;;;;6.50;5.40;;;21.30;48.70;;;;;;5093059;28;20580;-67
2021/01/11 06:41:06;;;;;;;5.57;4.50;;;21.30;48.70;;;;;;5093409;28;20415;-67
2021/01/11 06:43:42;;;;;;;5.60;4.60;;;21.30;48.80;;;;;;5093527;28;20414;-72
2021/01/11 06:46:10;;;;;;;6.53;5.07;;;21.40;48.90;;;;;;5093852;28;20231;-68
2021/01/11 06:48:39;;;;;;;5.17;4.40;;;21.40;48.90;;;;;;5092529;28;20488;-67
2021/01/11 06:51:09;;;;;;;5.93;5.30;;;21.40;48.90;;;;;;5093668;28;20404;-67
2021/01/11 06:53:36;;;;;;;5.90;4.67;;;21.40;48.90;;;;;;5092207;28;20439;-67
2021/01/11 06:56:05;;;;;;;5.57;4.80;;;21.50;49.00;;;;;;5093750;28;20840;-67
2021/01/11 06:58:33;;;;;;;5.70;5.20;;;21.50;48.90;;;;;;5093279;28;20431;-67
2021/01/11 07:01:07;;;;;;;6.20;4.57;;;21.50;49.00;;;;;;5094048;28;20920;-67
2021/01/11 07:03:45;;;;;;;5.50;4.87;;;21.50;48.90;;;;;;5093042;28;20396;-67
2021/01/11 07:06:43;;;;;;;6.20;4.73;;;21.50;48.90;;;;;;5093353;28;20824;-67
2021/01/11 07:09:12;;;;;;;5.07;4.57;;;21.50;48.90;;;;;;5093113;28;20452;-67
2021/01/11 07:11:40;;;;;;;5.97;5.37;;;21.50;48.90;;;;;;5093489;28;20407;-67
2021/01/11 07:14:07;;;;;;;7.67;5.17;;;21.50;48.90;;;;;;5093234;28;20403;-67
2021/01/11 07:16:44;;;;;;;5.33;4.40;;;21.60;48.90;;;;;;5093423;28;20803;-67
2021/01/11 07:19:14;;;;;;;6.80;4.80;;;21.60;48.80;;;;;;5093073;28;20419;-66
2021/01/11 07:21:41;;;;;;;6.40;5.23;;;21.60;48.90;;;;;;5093359;28;20520;-66
2021/01/11 07:24:08;;;;;;;4.97;4.47;;;21.60;48.90;;;;;;5093305;28;20906;-67
2021/01/11 07:26:35;;;;;;;5.00;4.33;;;21.60;48.90;;;;;;5093359;28;20422;-67
2021/01/11 07:29:09;;;;;;;4.80;4.33;;;21.60;48.90;;;;;;5092948;28;20423;-67
2021/01/11 07:31:40;;;;;;;5.27;4.53;;;21.60;48.90;;;;;;5093078;28;20505;-68
2021/01/11 07:34:15;;;;;;;6.60;4.87;;;21.60;48.90;;;;;;5093004;28;20403;-67
2021/01/11 07:36:42;;;;;;;5.60;4.87;;;21.60;48.90;;;;;;5092714;28;20456;-68
2021/01/11 07:39:13;;;;;;;6.33;4.33;;;21.60;48.90;;;;;;5097036;28;20431;-68
2021/01/11 07:41:59;;;;;;;5.80;4.70;;;21.70;49.00;;;;;;5097311;28;20407;-67
2021/01/11 07:44:41;;;;;;;5.07;4.57;;;21.70;48.90;;;;;;5096962;28;20812;-67
2021/01/11 07:47:14;;;;;;;9.83;4.70;;;21.70;49.00;;;;;;5096837;28;20438;-67
2021/01/11 07:49:48;;;;;;;4.37;3.93;;;21.70;49.00;;;;;;5096786;28;20383;-68
2021/01/11 07:52:17;;;;;;;6.60;4.87;;;21.70;49.00;;;;;;5095119;28;20404;-67
2021/01/11 07:54:44;;;;;;;5.37;4.20;;;21.70;49.00;;;;;;5096286;28;20408;-67
2021/01/11 07:57:15;;;;;;;4.57;4.10;;;21.70;49.00;;;;;;5096644;28;20942;-67
2021/01/11 07:59:44;;;;;;;4.17;3.70;;;21.70;49.00;;;;;;5096696;28;20419;-67
2021/01/11 08:02:14;;;;;;;4.73;3.80;;;21.70;49.00;;;;;;5096593;28;20406;-67
2021/01/11 08:04:41;;;;;;;5.10;4.53;;;21.70;49.00;;;;;;5095214;28;20988;-67
2021/01/11 08:07:12;;;;;;;5.97;3.93;;;21.70;49.00;;;;;;5096811;28;20756;-67
2021/01/11 08:09:39;;;;;;;5.67;4.10;;;21.70;49.00;;;;;;5096788;28;20380;-66
2021/01/11 08:12:11;;;;;;;4.87;4.03;;;21.70;49.00;;;;;;5096690;28;20414;-67
2021/01/11 08:14:41;;;;;;;4.40;4.00;;;21.70;49.00;;;;;;5096653;28;20404;-68
2021/01/11 08:17:11;;;;;;;4.67;3.90;;;21.70;49.00;;;;;;5096347;28;20461;-67
2021/01/11 08:19:40;;;;;;;4.23;3.50;;;21.70;49.00;;;;;;5096340;28;20401;-68
2021/01/11 08:22:07;;;;;;;6.80;4.20;;;21.70;49.00;;;;;;5096491;28;20418;-68
2021/01/11 08:24:33;;;;;;;4.80;4.40;;;21.70;49.00;;;;;;5096488;28;20858;-67
2021/01/11 08:27:06;;;;;;;4.57;3.97;;;21.70;49.00;;;;;;5096105;28;20490;-67
2021/01/11 08:29:36;;;;;;;5.23;3.53;;;21.70;49.00;;;;;;5096148;28;20411;-67
2021/01/11 08:32:04;;;;;;;4.63;4.10;;;21.70;49.00;;;;;;5096006;28;20442;-66
2021/01/11 08:34:30;;;;;;;4.40;3.67;;;21.60;48.90;;;;;;5096592;28;20478;-68
2021/01/11 08:36:55;;;;;;;5.03;4.20;;;21.70;49.00;;;;;;5095915;28;20403;-66
2021/01/11 08:39:21;;;;;;;5.23;4.67;;;21.60;49.00;;;;;;5095726;28;20235;-65
2021/01/11 08:41:50;;;;;;;4.40;3.97;;;21.70;48.90;;;;;;5096232;28;20192;-67
2021/01/11 08:44:34;;;;;;;4.37;3.93;;;21.60;48.80;;;;;;5095795;28;20189;-67
2021/01/11 08:47:08;;;;;;;4.80;4.03;;;21.60;48.70;;;;;;5095682;28;20446;-67
2021/01/11 08:49:53;;;;;;;4.50;3.80;;;21.60;48.70;;;;;;5095011;28;20408;-69
2021/01/11 08:52:19;;;;;;;4.40;4.00;;;21.60;48.80;;;;;;5095876;28;20465;-67
2021/01/11 08:54:44;;;;;;;4.80;4.30;;;21.60;48.80;;;;;;5095943;28;20404;-67
2021/01/11 08:57:14;;;;;;;4.57;4.17;;;21.70;48.90;;;;;;5095831;28;20260;-67
2021/01/11 08:59:52;;;;;;;4.30;3.70;;;21.60;48.80;;;;;;5095842;28;20184;-67
2021/01/11 09:02:25;;;;;;;5.67;5.13;;;21.60;48.80;;;;;;5095738;28;20407;-70
2021/01/11 09:04:51;;;;;;;4.77;4.27;;;21.60;49.30;;;;;;5095695;28;20493;-64
2021/01/11 09:07:31;;;;;;;5.00;4.50;;;21.60;48.80;;;;;;5095310;28;20432;-65
2021/01/11 09:09:57;;;;;;;5.00;4.07;;;21.70;48.80;;;;;;5095689;28;20570;-70
2021/01/11 09:12:34;;;;;;;3.63;2.93;;;21.70;49.40;;;;;;5095514;28;20460;-70
2021/01/11 09:15:00;;;;;;;5.00;4.07;;;21.70;48.80;;;;;;5095790;28;20444;-71
2021/01/11 09:17:27;;;;;;;5.67;3.40;;;21.70;48.80;;;;;;5095427;28;20514;-71
2021/01/11 09:19:53;;;;;;;3.87;3.53;;;21.70;48.80;;;;;;5095428;28;20230;-69
2021/01/11 09:22:29;;;;;;;6.40;4.60;;;21.80;48.80;;;;;;5095368;28;20403;-68
2021/01/11 09:24:55;;;;;;;3.90;3.60;;;21.80;48.80;;;;;;5095235;28;20182;-67
2021/01/11 09:27:21;;;;;;;7.10;3.90;;;21.80;48.90;;;;;;5095247;28;20724;-68
2021/01/11 09:29:46;;;;;;;4.60;4.20;;;21.80;49.00;;;;;;5095286;28;20158;-67
2021/01/11 09:32:12;;;;;;;5.83;4.10;;;21.80;49.00;;;;;;5094793;28;20595;-68
2021/01/11 09:34:37;;;;;;;4.47;3.80;;;21.80;48.90;;;;;;5095032;28;20256;-68
2021/01/11 09:37:03;;;;;;;4.03;3.63;;;21.80;49.00;;;;;;5093459;28;20619;-69
2021/01/11 09:39:28;;;;;;;5.93;4.27;;;21.80;49.00;;;;;;5093472;28;20181;-66
2021/01/11 09:41:58;;;;;;;7.67;3.87;;;21.80;49.00;;;;;;5095007;28;20249;-67
2021/01/11 09:44:24;;;;;;;4.03;3.63;;;21.90;49.00;;;;;;5094857;28;20188;-69
2021/01/11 09:46:52;;;;;;;4.33;3.30;;;21.90;49.00;;;;;;5094865;28;20905;-64
2021/01/11 09:49:19;;;;;;;3.93;3.50;;;21.80;49.00;;;;;;5093171;28;20196;-69
2021/01/11 09:51:45;;;;;;;4.73;4.23;;;21.80;49.00;;;;;;5094569;28;20465;-71
2021/01/11 09:54:11;;;;;;;5.13;4.33;;;21.90;49.00;;;;;;5094476;28;20835;-66
2021/01/11 09:56:37;;;;;;;4.50;3.97;;;21.90;49.00;;;;;;5094464;28;20174;-70
2021/01/11 09:59:07;;;;;;;4.67;3.80;;;21.80;49.10;;;;;;5094287;28;20562;-65
2021/01/11 10:01:46;;;;;;;5.40;4.03;;;21.80;49.10;;;;;;5093293;28;20400;-70
2021/01/11 10:04:13;;;;;;;3.90;3.43;;;21.80;49.10;;;;;;5094147;28;20399;-64
2021/01/11 10:06:41;;;;;;;4.20;3.80;;;21.90;49.10;;;;;;5094219;28;20411;-69
2021/01/11 10:09:07;;;;;;;4.23;3.83;;;21.80;49.10;;;;;;5094037;28;20432;-69
2021/01/11 10:11:33;;;;;;;3.57;3.27;;;21.90;49.10;;;;;;5093587;28;20412;-71
2021/01/11 10:13:59;;;;;;;3.70;3.27;;;21.90;49.10;;;;;;5092219;28;20403;-70
2021/01/11 10:16:24;;;;;;;3.70;3.40;;;21.90;49.10;;;;;;5092439;28;20169;-70
2021/01/11 10:18:50;;;;;;;4.00;3.60;;;21.90;49.10;;;;;;5094274;28;20559;-71
2021/01/11 10:21:22;;;;;;;4.30;3.90;;;21.90;49.10;;;;;;5112473;27;20894;-70
2021/01/11 10:23:48;;;;;;;3.63;3.27;;;21.90;49.10;;;;;;5109053;28;20419;-68
2021/01/11 10:26:15;;;;;;;4.40;3.53;;;21.90;49.10;;;;;;5111125;28;20460;-68
2021/01/11 10:28:41;;;;;;;4.00;3.60;;;21.90;49.20;;;;;;5110734;28;20557;-66
2021/01/11 10:31:07;;;;;;;5.37;3.30;;;21.90;49.20;;;;;;5111505;28;20399;-68
2021/01/11 10:33:32;;;;;;;4.50;4.10;;;21.90;49.30;;;;;;5110715;28;20188;-69
2021/01/11 10:35:58;;;;;;;3.50;3.20;;;21.90;49.30;;;;;;5110922;28;20517;-69
2021/01/11 10:38:23;;;;;;;3.13;2.83;;;21.90;49.20;;;;;;5110791;28;20189;-69
2021/01/11 10:40:49;;;;;;;6.30;3.60;;;21.90;49.30;;;;;;5110450;28;20690;-69
2021/01/11 10:43:15;;;;;;;3.60;3.30;;;21.90;49.30;;;;;;5110573;28;20252;-72
2021/01/11 10:45:40;;;;;;;4.10;3.30;;;21.90;49.30;;;;;;5110722;28;20561;-64
2021/01/11 10:48:06;;;;;;;4.70;3.70;;;21.90;49.20;;;;;;5109930;22;20189;-66
2021/01/11 10:50:32;;;;;;;4.37;3.73;;;21.90;49.20;;;;;;5050173;28;20254;-67
2021/01/11 10:52:57;;;;;;;3.60;3.17;;;22.00;49.30;;;;;;5050008;28;20409;-69
2021/01/11 10:55:23;;;;;;;5.00;3.90;;;22.00;49.80;;;;;;5049817;28;20171;-70
2021/01/11 10:57:49;;;;;;;4.63;3.47;;;21.90;49.80;;;;;;5049682;28;20198;-68
2021/01/11 11:00:18;;;;;;;3.97;3.57;;;21.90;49.30;;;;;;5049913;28;20195;-68
2021/01/11 11:02:44;;;;;;;4.17;3.60;;;21.90;49.40;;;;;;5049897;28;20163;-69
2021/01/11 11:05:10;;;;;;;4.30;3.57;;;21.90;49.40;;;;;;5049906;28;20500;-68
2021/01/11 11:07:38;;;;;;;3.60;3.30;;;21.90;49.40;;;;;;5049526;28;20430;-68
2021/01/11 11:10:08;;;;;;;4.30;3.47;;;21.90;49.50;;;;;;5049497;28;20471;-68
2021/01/11 11:12:35;;;;;;;3.83;2.80;;;21.90;49.50;;;;;;5048190;28;20979;-68
2021/01/11 11:15:01;;;;;;;4.37;3.40;;;21.80;49.50;;;;;;5049438;28;20409;-68
2021/01/11 11:17:33;;;;;;;3.10;2.80;;;21.90;49.50;;;;;;5049225;28;20433;-68
2021/01/11 11:19:59;;;;;;;3.90;3.50;;;21.90;49.50;;;;;;5049551;28;20483;-68
2021/01/11 11:22:25;;;;;;;4.50;3.20;;;21.90;49.50;;;;;;5049384;28;20413;-69
2021/01/11 11:24:51;;;;;;;4.20;3.40;;;21.90;49.60;;;;;;5049292;28;20959;-70
2021/01/11 11:27:17;;;;;;;3.60;3.30;;;21.80;49.50;;;;;;5049224;28;20475;-68
2021/01/11 11:29:44;;;;;;;3.80;3.40;;;21.80;49.90;;;;;;5047916;28;20414;-69
2021/01/11 11:32:10;;;;;;;3.50;3.20;;;21.80;49.60;;;;;;5039391;28;20172;-70
2021/01/11 11:34:36;;;;;;;4.47;3.17;;;21.80;49.60;;;;;;5036102;28;20413;-69
2021/01/11 11:37:02;;;;;;;4.30;3.00;;;21.80;49.60;;;;;;5035721;28;20429;-69
2021/01/11 11:39:27;;;;;;;4.13;3.50;;;21.80;49.60;;;;;;5035850;28;20450;-69
2021/01/11 11:41:58;;;;;;;3.23;2.93;;;21.80;49.60;;;;;;5036180;28;20172;-70
2021/01/11 11:44:23;;;;;;;3.87;3.20;;;21.80;49.60;;;;;;5035846;28;20561;-69
2021/01/11 11:46:49;;;;;;;4.57;3.40;;;21.70;49.50;;;;;;5035811;28;20417;-70
2021/01/11 11:49:15;;;;;;;3.67;3.37;;;21.80;49.60;;;;;;5035376;28;20468;-69
2021/01/11 11:51:45;;;;;;;3.23;2.93;;;21.80;49.60;;;;;;5034176;28;20407;-70
2021/01/11 11:54:10;;;;;;;4.27;3.60;;;21.80;49.60;;;;;;5034144;28;20175;-70
2021/01/11 11:56:43;;;;;;;3.83;3.23;;;21.70;50.10;;;;;;5034522;28;20421;-69
2021/01/11 11:59:09;;;;;;;4.10;3.70;;;21.80;49.60;;;;;;5017464;28;20206;-69
2021/01/11 12:01:39;;;;;;;4.00;3.30;;;21.70;49.60;;;;;;5035255;28;20410;-68
2021/01/11 12:04:06;;;;;;;5.13;3.40;;;21.70;49.60;;;;;;5035016;28;20453;-69
2021/01/11 12:06:43;;;;;;;3.77;3.07;;;21.70;49.70;;;;;;5035464;28;20407;-69
2021/01/11 12:09:09;;;;;;;3.50;3.20;;;21.70;49.60;;;;;;5035323;28;20783;-69
2021/01/11 12:11:50;;;;;;;3.83;3.30;;;21.70;50.20;;;;;;5035376;28;20418;-69
2021/01/11 12:14:17;;;;;;;4.50;3.37;;;21.80;49.70;;;;;;5035313;28;20419;-69
2021/01/11 12:16:47;;;;;;;3.87;3.30;;;21.70;49.60;;;;;;5035246;28;20422;-69
2021/01/11 12:19:12;;;;;;;4.30;3.60;;;21.70;49.60;;;;;;5034861;28;20520;-69
2021/01/11 12:21:38;;;;;;;3.90;2.97;;;21.70;49.60;;;;;;5034831;28;20498;-69
2021/01/11 12:24:04;;;;;;;3.37;3.07;;;21.70;49.60;;;;;;5035066;28;20156;-70
2021/01/11 12:26:40;;;;;;;3.53;2.97;;;21.70;49.60;;;;;;5035025;28;20183;-69
2021/01/11 12:29:07;;;;;;;3.60;3.07;;;21.70;49.60;;;;;;5034210;28;20453;-68
2021/01/11 12:31:33;;;;;;;3.10;2.77;;;21.70;49.60;;;;;;5034430;28;20406;-70
2021/01/11 12:33:59;;;;;;;3.97;3.60;;;21.70;49.70;;;;;;5034607;28;20405;-69
2021/01/11 12:36:26;;;;;;;3.67;3.37;;;21.70;49.70;;;;;;5035006;28;20187;-69
2021/01/11 12:38:52;;;;;;;3.73;3.30;;;21.70;49.70;;;;;;5034527;28;20921;-70
2021/01/11 12:41:25;;;;;;;6.33;3.13;;;21.70;50.20;;;;;;5034821;28;20444;-70
2021/01/11 12:43:51;;;;;;;4.87;3.40;;;21.70;49.70;;;;;;5033649;28;20405;-69
2021/01/11 12:46:20;;;;;;;4.83;3.20;;;21.70;49.70;;;;;;5034733;28;20390;-69
2021/01/11 12:48:46;;;;;;;4.90;3.57;;;21.70;49.70;;;;;;5034379;28;20529;-70
2021/01/11 12:51:15;;;;;;;9.63;3.70;;;21.70;49.70;;;;;;5034317;28;20433;-69
2021/01/11 12:53:44;;;;;;;5.93;4.10;;;21.70;49.70;;;;;;5034501;28;20609;-69
2021/01/11 12:56:20;;;;;;;5.67;3.80;;;21.70;49.70;;;;;;5034386;28;20406;-69
2021/01/11 12:58:47;;;;;;;4.53;3.50;;;21.70;49.70;;;;;;5033273;28;20497;-69